sensor_id;sensor_type;location;lat;lon;timestamp;temperature;humidity
18898;DHT22;9581;49.484;8.556;2023-03-01T00:01:52;2.80;99.90
18898;DHT22;9581;49.484;8.556;2023-03-01T00:04:20;2.50;99.90
18898;DHT22;9581;49.484;8.556;2023-03-01T00:06:47;2.50;99.90
18898;DHT22;9581;49.484;8.556;2023-03-01T00:09:14;2.60;99.90
18898;DHT22;9581;49.484;8.556;2023-03-01T00:11:41;2.60;99.90
18898;DHT22;9581;49.484;8.556;2023-03-01T00:14:08;2.60;99.90
18898;DHT22;9581;49.484;8.556;2023-03-01T00:16:37;2.60;99.90
18898;DHT22;9581;49.484;8.556;2023-03-01T00:19:05;2.70;99.90
18898;DHT22;9581;49.484;8.556;2023-03-01T00:21:33;2.40;99.90
18898;DHT22;9581;49.484;8.556;2023-03-01T00:24:02;2.50;99.90
18898;DHT22;9581;49.484;8.556;2023-03-01T00:26:29;2.50;99.90
18898;DHT22;9581;49.484;8.556;2023-03-01T00:28:57;2.60;99.90
18898;DHT22;9581;49.484;8.556;2023-03-01T00:31:26;2.40;99.90
18898;DHT22;9581;49.484;8.556;2023-03-01T00:33:53;2.50;99.90
18898;DHT22;9581;49.484;8.556;2023-03-01T00:36:23;2.60;99.90
18898;DHT22;9581;49.484;8.556;2023-03-01T00:38:51;2.40;99.90
18898;DHT22;9581;49.484;8.556;2023-03-01T00:41:19;2.40;99.90
18898;DHT22;9581;49.484;8.556;2023-03-01T00:43:48;2.40;99.90
18898;DHT22;9581;49.484;8.556;2023-03-01T00:46:17;2.20;99.90
18898;DHT22;9581;49.484;8.556;2023-03-01T00:48:44;2.30;99.90
18898;DHT22;9581;49.484;8.556;2023-03-01T00:51:15;2.30;99.90
18898;DHT22;9581;49.484;8.556;2023-03-01T00:53:43;2.30;99.90
18898;DHT22;9581;49.484;8.556;2023-03-01T00:56:13;2.20;99.90
18898;DHT22;9581;49.484;8.556;2023-03-01T00:58:40;2.20;99.90
18898;DHT22;9581;49.484;8.556;2023-03-01T01:01:08;2.10;99.90
18898;DHT22;9581;49.484;8.556;2023-03-01T01:03:43;2.10;99.90
18898;DHT22;9581;49.484;8.556;2023-03-01T01:06:14;2.10;99.90
18898;DHT22;9581;49.484;8.556;2023-03-01T01:08:41;2.20;99.90
18898;DHT22;9581;49.484;8.556;2023-03-01T01:11:10;2.20;99.90
18898;DHT22;9581;49.484;8.556;2023-03-01T01:13:37;2.20;99.90
18898;DHT22;9581;49.484;8.556;2023-03-01T01:16:05;2.30;99.90
18898;DHT22;9581;49.484;8.556;2023-03-01T01:18:32;2.40;99.90
18898;DHT22;9581;49.484;8.556;2023-03-01T01:21:03;2.30;99.90
18898;DHT22;9581;49.484;8.556;2023-03-01T01:23:30;2.20;99.90
18898;DHT22;9581;49.484;8.556;2023-03-01T01:25:57;2.30;99.90
18898;DHT22;9581;49.484;8.556;2023-03-01T01:28:30;2.30;99.90
18898;DHT22;9581;49.484;8.556;2023-03-01T01:30:57;2.20;99.90
18898;DHT22;9581;49.484;8.556;2023-03-01T01:33:24;1.90;99.90
18898;DHT22;9581;49.484;8.556;2023-03-01T01:35:50;1.90;99.90
18898;DHT22;9581;49.484;8.556;2023-03-01T01:38:17;1.70;99.90
18898;DHT22;9581;49.484;8.556;2023-03-01T01:40:44;1.30;99.90
18898;DHT22;9581;49.484;8.556;2023-03-01T01:43:18;1.20;99.90
18898;DHT22;9581;49.484;8.556;2023-03-01T01:45:47;1.10;99.90
18898;DHT22;9581;49.484;8.556;2023-03-01T01:48:17;1.40;99.90
18898;DHT22;9581;49.484;8.556;2023-03-01T01:50:45;1.70;99.90
18898;DHT22;9581;49.484;8.556;2023-03-01T01:53:17;2.10;99.90
18898;DHT22;9581;49.484;8.556;2023-03-01T01:55:49;2.40;99.90
18898;DHT22;9581;49.484;8.556;2023-03-01T01:58:19;2.50;99.90
18898;DHT22;9581;49.484;8.556;2023-03-01T02:00:48;2.50;99.90
18898;DHT22;9581;49.484;8.556;2023-03-01T02:03:20;2.70;99.90
18898;DHT22;9581;49.484;8.556;2023-03-01T02:05:53;2.50;99.90
18898;DHT22;9581;49.484;8.556;2023-03-01T02:08:25;2.10;99.90
18898;DHT22;9581;49.484;8.556;2023-03-01T02:10:53;1.80;99.90
18898;DHT22;9581;49.484;8.556;2023-03-01T02:13:21;1.90;99.90
18898;DHT22;9581;49.484;8.556;2023-03-01T02:15:49;1.70;99.90
18898;DHT22;9581;49.484;8.556;2023-03-01T02:18:18;2.10;99.90
18898;DHT22;9581;49.484;8.556;2023-03-01T02:20:55;2.10;99.90
18898;DHT22;9581;49.484;8.556;2023-03-01T02:23:25;2.00;99.90
18898;DHT22;9581;49.484;8.556;2023-03-01T02:25:58;2.20;99.90
18898;DHT22;9581;49.484;8.556;2023-03-01T02:28:31;2.10;99.90
18898;DHT22;9581;49.484;8.556;2023-03-01T02:30:58;2.20;99.90
18898;DHT22;9581;49.484;8.556;2023-03-01T02:33:39;2.30;99.90
18898;DHT22;9581;49.484;8.556;2023-03-01T02:36:10;2.50;99.90
18898;DHT22;9581;49.484;8.556;2023-03-01T02:38:39;2.40;99.90
18898;DHT22;9581;49.484;8.556;2023-03-01T02:41:07;1.90;99.90
18898;DHT22;9581;49.484;8.556;2023-03-01T02:43:36;2.20;99.90
18898;DHT22;9581;49.484;8.556;2023-03-01T02:46:05;2.40;99.90
18898;DHT22;9581;49.484;8.556;2023-03-01T02:48:41;2.60;99.90
18898;DHT22;9581;49.484;8.556;2023-03-01T02:51:14;2.60;99.90
18898;DHT22;9581;49.484;8.556;2023-03-01T02:53:53;2.60;99.90
18898;DHT22;9581;49.484;8.556;2023-03-01T02:56:21;2.50;99.90
18898;DHT22;9581;49.484;8.556;2023-03-01T02:58:49;2.50;99.90
18898;DHT22;9581;49.484;8.556;2023-03-01T03:01:17;2.40;99.90
18898;DHT22;9581;49.484;8.556;2023-03-01T03:03:44;2.50;99.90
18898;DHT22;9581;49.484;8.556;2023-03-01T03:06:12;2.50;99.90
18898;DHT22;9581;49.484;8.556;2023-03-01T03:08:39;2.50;99.90
18898;DHT22;9581;49.484;8.556;2023-03-01T03:11:05;2.60;99.90
18898;DHT22;9581;49.484;8.556;2023-03-01T03:13:32;2.40;99.90
18898;DHT22;9581;49.484;8.556;2023-03-01T03:16:02;2.40;99.90
18898;DHT22;9581;49.484;8.556;2023-03-01T03:18:29;2.40;99.90
18898;DHT22;9581;49.484;8.556;2023-03-01T03:20:56;2.50;99.90
18898;DHT22;9581;49.484;8.556;2023-03-01T03:23:23;2.40;99.90
18898;DHT22;9581;49.484;8.556;2023-03-01T03:25:50;2.50;99.90
18898;DHT22;9581;49.484;8.556;2023-03-01T03:28:17;2.50;99.90
18898;DHT22;9581;49.484;8.556;2023-03-01T03:30:44;2.10;99.90
18898;DHT22;9581;49.484;8.556;2023-03-01T03:33:13;1.90;99.90
18898;DHT22;9581;49.484;8.556;2023-03-01T03:35:42;2.20;99.90
18898;DHT22;9581;49.484;8.556;2023-03-01T03:38:12;2.40;99.90
18898;DHT22;9581;49.484;8.556;2023-03-01T03:40:43;2.40;99.90
18898;DHT22;9581;49.484;8.556;2023-03-01T03:43:12;2.50;99.90
18898;DHT22;9581;49.484;8.556;2023-03-01T03:45:39;2.40;99.90
18898;DHT22;9581;49.484;8.556;2023-03-01T03:48:07;2.50;99.90
18898;DHT22;9581;49.484;8.556;2023-03-01T03:50:37;2.40;99.90
18898;DHT22;9581;49.484;8.556;2023-03-01T03:53:07;2.40;99.90
18898;DHT22;9581;49.484;8.556;2023-03-01T03:55:34;2.40;99.90
18898;DHT22;9581;49.484;8.556;2023-03-01T03:58:05;2.30;99.90
18898;DHT22;9581;49.484;8.556;2023-03-01T04:00:34;2.20;99.90
18898;DHT22;9581;49.484;8.556;2023-03-01T04:03:01;2.20;99.90
18898;DHT22;9581;49.484;8.556;2023-03-01T04:05:28;2.10;99.90
18898;DHT22;9581;49.484;8.556;2023-03-01T04:07:56;2.00;99.90
18898;DHT22;9581;49.484;8.556;2023-03-01T04:10:28;2.10;99.90
18898;DHT22;9581;49.484;8.556;2023-03-01T04:12:55;2.30;99.90
18898;DHT22;9581;49.484;8.556;2023-03-01T04:15:23;2.10;99.90
18898;DHT22;9581;49.484;8.556;2023-03-01T04:17:51;1.80;99.90
18898;DHT22;9581;49.484;8.556;2023-03-01T04:20:20;1.80;99.90
18898;DHT22;9581;49.484;8.556;2023-03-01T04:22:50;2.00;99.90
18898;DHT22;9581;49.484;8.556;2023-03-01T04:25:19;2.00;99.90
18898;DHT22;9581;49.484;8.556;2023-03-01T04:27:46;1.90;99.90
18898;DHT22;9581;49.484;8.556;2023-03-01T04:30:13;2.00;99.90
18898;DHT22;9581;49.484;8.556;2023-03-01T04:32:40;1.70;99.90
18898;DHT22;9581;49.484;8.556;2023-03-01T04:35:07;1.80;99.90
18898;DHT22;9581;49.484;8.556;2023-03-01T04:37:34;1.80;99.90
18898;DHT22;9581;49.484;8.556;2023-03-01T04:40:01;2.00;99.90
18898;DHT22;9581;49.484;8.556;2023-03-01T04:42:39;2.00;99.90
18898;DHT22;9581;49.484;8.556;2023-03-01T04:45:06;1.80;99.90
18898;DHT22;9581;49.484;8.556;2023-03-01T04:47:38;1.70;99.90
18898;DHT22;9581;49.484;8.556;2023-03-01T04:50:06;1.70;99.90
18898;DHT22;9581;49.484;8.556;2023-03-01T04:52:33;1.70;99.90
18898;DHT22;9581;49.484;8.556;2023-03-01T04:55:00;1.70;99.90
18898;DHT22;9581;49.484;8.556;2023-03-01T04:57:27;1.70;99.90
18898;DHT22;9581;49.484;8.556;2023-03-01T04:59:55;1.90;99.90
18898;DHT22;9581;49.484;8.556;2023-03-01T05:02:22;1.80;99.90
18898;DHT22;9581;49.484;8.556;2023-03-01T05:04:49;1.90;99.90
18898;DHT22;9581;49.484;8.556;2023-03-01T05:07:16;2.00;99.90
18898;DHT22;9581;49.484;8.556;2023-03-01T05:09:44;1.90;99.90
18898;DHT22;9581;49.484;8.556;2023-03-01T05:12:11;1.80;99.90
18898;DHT22;9581;49.484;8.556;2023-03-01T05:14:38;2.10;99.90
18898;DHT22;9581;49.484;8.556;2023-03-01T05:17:07;2.10;99.90
18898;DHT22;9581;49.484;8.556;2023-03-01T05:19:34;2.20;99.90
18898;DHT22;9581;49.484;8.556;2023-03-01T05:22:01;2.10;99.90
18898;DHT22;9581;49.484;8.556;2023-03-01T05:24:30;2.00;99.90
18898;DHT22;9581;49.484;8.556;2023-03-01T05:26:57;2.00;99.90
18898;DHT22;9581;49.484;8.556;2023-03-01T05:29:25;2.00;99.90
18898;DHT22;9581;49.484;8.556;2023-03-01T05:31:54;2.00;99.90
18898;DHT22;9581;49.484;8.556;2023-03-01T05:34:24;1.80;99.90
18898;DHT22;9581;49.484;8.556;2023-03-01T05:36:52;1.90;99.90
18898;DHT22;9581;49.484;8.556;2023-03-01T05:39:20;2.00;99.90
18898;DHT22;9581;49.484;8.556;2023-03-01T05:41:48;2.00;99.90
18898;DHT22;9581;49.484;8.556;2023-03-01T05:44:15;2.10;99.90
18898;DHT22;9581;49.484;8.556;2023-03-01T05:46:42;2.00;99.90
18898;DHT22;9581;49.484;8.556;2023-03-01T05:49:10;2.00;99.90
18898;DHT22;9581;49.484;8.556;2023-03-01T05:51:40;1.90;99.90
18898;DHT22;9581;49.484;8.556;2023-03-01T05:54:07;1.90;99.90
18898;DHT22;9581;49.484;8.556;2023-03-01T05:56:34;1.90;99.90
18898;DHT22;9581;49.484;8.556;2023-03-01T05:59:01;1.90;99.90
18898;DHT22;9581;49.484;8.556;2023-03-01T06:01:28;1.80;99.90
18898;DHT22;9581;49.484;8.556;2023-03-01T06:03:55;2.00;99.90
18898;DHT22;9581;49.484;8.556;2023-03-01T06:06:23;2.10;99.90
18898;DHT22;9581;49.484;8.556;2023-03-01T06:08:51;2.00;99.90
18898;DHT22;9581;49.484;8.556;2023-03-01T06:11:18;1.90;99.90
18898;DHT22;9581;49.484;8.556;2023-03-01T06:13:45;1.80;99.90
18898;DHT22;9581;49.484;8.556;2023-03-01T06:16:13;1.70;99.90
18898;DHT22;9581;49.484;8.556;2023-03-01T06:18:40;1.40;99.90
18898;DHT22;9581;49.484;8.556;2023-03-01T06:21:08;1.30;99.90
18898;DHT22;9581;49.484;8.556;2023-03-01T06:23:35;1.30;99.90
18898;DHT22;9581;49.484;8.556;2023-03-01T06:26:07;1.40;99.90
18898;DHT22;9581;49.484;8.556;2023-03-01T06:28:34;1.60;99.90
18898;DHT22;9581;49.484;8.556;2023-03-01T06:31:01;1.90;99.90
18898;DHT22;9581;49.484;8.556;2023-03-01T06:33:28;1.90;99.90
18898;DHT22;9581;49.484;8.556;2023-03-01T06:35:55;1.90;99.90
18898;DHT22;9581;49.484;8.556;2023-03-01T06:38:22;1.90;99.90
18898;DHT22;9581;49.484;8.556;2023-03-01T06:40:52;2.00;99.90
18898;DHT22;9581;49.484;8.556;2023-03-01T06:43:20;2.10;99.90
18898;DHT22;9581;49.484;8.556;2023-03-01T06:45:47;2.10;99.90
18898;DHT22;9581;49.484;8.556;2023-03-01T06:48:14;2.30;99.90
18898;DHT22;9581;49.484;8.556;2023-03-01T06:50:41;2.40;99.90
18898;DHT22;9581;49.484;8.556;2023-03-01T06:53:07;2.40;99.90
18898;DHT22;9581;49.484;8.556;2023-03-01T06:55:34;2.50;99.90
18898;DHT22;9581;49.484;8.556;2023-03-01T06:58:02;2.50;99.90
18898;DHT22;9581;49.484;8.556;2023-03-01T07:00:30;2.60;99.90
18898;DHT22;9581;49.484;8.556;2023-03-01T07:02:59;2.70;99.90
18898;DHT22;9581;49.484;8.556;2023-03-01T07:05:26;2.70;99.90
18898;DHT22;9581;49.484;8.556;2023-03-01T07:07:53;2.70;99.90
18898;DHT22;9581;49.484;8.556;2023-03-01T07:10:20;2.90;99.90
18898;DHT22;9581;49.484;8.556;2023-03-01T07:12:47;2.90;99.90
18898;DHT22;9581;49.484;8.556;2023-03-01T07:15:14;2.90;99.90
18898;DHT22;9581;49.484;8.556;2023-03-01T07:17:42;3.00;99.90
18898;DHT22;9581;49.484;8.556;2023-03-01T07:20:11;3.00;99.90
18898;DHT22;9581;49.484;8.556;2023-03-01T07:22:39;3.00;99.90
18898;DHT22;9581;49.484;8.556;2023-03-01T07:25:07;3.10;99.90
18898;DHT22;9581;49.484;8.556;2023-03-01T07:27:33;3.20;99.90
18898;DHT22;9581;49.484;8.556;2023-03-01T07:30:00;3.30;99.90
18898;DHT22;9581;49.484;8.556;2023-03-01T07:32:27;3.30;99.90
18898;DHT22;9581;49.484;8.556;2023-03-01T07:34:55;3.30;99.90
18898;DHT22;9581;49.484;8.556;2023-03-01T07:37:22;3.20;99.90
18898;DHT22;9581;49.484;8.556;2023-03-01T07:39:48;3.30;99.90
18898;DHT22;9581;49.484;8.556;2023-03-01T07:42:15;3.40;99.90
18898;DHT22;9581;49.484;8.556;2023-03-01T07:44:42;3.30;99.90
18898;DHT22;9581;49.484;8.556;2023-03-01T07:47:08;3.40;99.90
18898;DHT22;9581;49.484;8.556;2023-03-01T07:49:35;3.40;99.90
18898;DHT22;9581;49.484;8.556;2023-03-01T07:52:04;3.40;99.90
18898;DHT22;9581;49.484;8.556;2023-03-01T07:54:30;3.50;99.90
18898;DHT22;9581;49.484;8.556;2023-03-01T07:56:57;3.40;99.90
18898;DHT22;9581;49.484;8.556;2023-03-01T07:59:24;3.50;99.90
18898;DHT22;9581;49.484;8.556;2023-03-01T08:01:54;3.50;99.90
18898;DHT22;9581;49.484;8.556;2023-03-01T08:04:21;3.60;99.90
18898;DHT22;9581;49.484;8.556;2023-03-01T08:06:50;3.70;99.90
18898;DHT22;9581;49.484;8.556;2023-03-01T08:09:18;3.70;99.90
18898;DHT22;9581;49.484;8.556;2023-03-01T08:11:45;3.70;99.90
18898;DHT22;9581;49.484;8.556;2023-03-01T08:14:11;3.80;99.90
18898;DHT22;9581;49.484;8.556;2023-03-01T08:16:38;4.00;99.90
18898;DHT22;9581;49.484;8.556;2023-03-01T08:19:05;4.00;99.90
18898;DHT22;9581;49.484;8.556;2023-03-01T08:21:32;4.10;99.90
18898;DHT22;9581;49.484;8.556;2023-03-01T08:24:00;4.20;99.90
18898;DHT22;9581;49.484;8.556;2023-03-01T08:26:28;4.20;99.90
18898;DHT22;9581;49.484;8.556;2023-03-01T08:28:55;4.30;99.90
18898;DHT22;9581;49.484;8.556;2023-03-01T08:31:23;4.40;99.90
18898;DHT22;9581;49.484;8.556;2023-03-01T08:33:51;4.50;99.90
18898;DHT22;9581;49.484;8.556;2023-03-01T08:36:21;4.60;99.90
18898;DHT22;9581;49.484;8.556;2023-03-01T08:38:48;4.80;99.90
18898;DHT22;9581;49.484;8.556;2023-03-01T08:41:14;4.90;99.90
18898;DHT22;9581;49.484;8.556;2023-03-01T08:43:42;4.90;99.90
18898;DHT22;9581;49.484;8.556;2023-03-01T08:46:10;5.10;99.90
18898;DHT22;9581;49.484;8.556;2023-03-01T08:48:36;5.20;99.90
18898;DHT22;9581;49.484;8.556;2023-03-01T08:51:12;5.20;99.90
18898;DHT22;9581;49.484;8.556;2023-03-01T08:53:39;5.30;99.90
18898;DHT22;9581;49.484;8.556;2023-03-01T08:56:06;5.30;99.90
18898;DHT22;9581;49.484;8.556;2023-03-01T08:58:34;5.50;99.90
18898;DHT22;9581;49.484;8.556;2023-03-01T09:01:07;5.60;99.90
18898;DHT22;9581;49.484;8.556;2023-03-01T09:03:34;5.60;99.90
18898;DHT22;9581;49.484;8.556;2023-03-01T09:06:01;5.80;99.90
18898;DHT22;9581;49.484;8.556;2023-03-01T09:08:28;5.90;99.90
18898;DHT22;9581;49.484;8.556;2023-03-01T09:10:54;5.90;99.90
18898;DHT22;9581;49.484;8.556;2023-03-01T09:13:21;6.00;99.90
18898;DHT22;9581;49.484;8.556;2023-03-01T09:15:50;6.10;99.90
18898;DHT22;9581;49.484;8.556;2023-03-01T09:18:18;6.20;99.90
18898;DHT22;9581;49.484;8.556;2023-03-01T09:20:45;6.00;99.90
18898;DHT22;9581;49.484;8.556;2023-03-01T09:23:12;6.20;99.90
18898;DHT22;9581;49.484;8.556;2023-03-01T09:25:38;6.40;99.90
18898;DHT22;9581;49.484;8.556;2023-03-01T09:28:05;6.70;99.90
18898;DHT22;9581;49.484;8.556;2023-03-01T09:30:32;6.70;99.90
18898;DHT22;9581;49.484;8.556;2023-03-01T09:32:59;6.70;99.90
18898;DHT22;9581;49.484;8.556;2023-03-01T09:35:27;6.70;99.90
18898;DHT22;9581;49.484;8.556;2023-03-01T09:37:53;6.70;99.70
18898;DHT22;9581;49.484;8.556;2023-03-01T09:40:22;6.90;99.90
18898;DHT22;9581;49.484;8.556;2023-03-01T09:42:53;7.10;99.80
18898;DHT22;9581;49.484;8.556;2023-03-01T09:45:28;7.00;99.30
18898;DHT22;9581;49.484;8.556;2023-03-01T09:47:56;7.10;99.60
18898;DHT22;9581;49.484;8.556;2023-03-01T09:50:27;7.20;98.80
18898;DHT22;9581;49.484;8.556;2023-03-01T09:53:02;7.50;98.70
18898;DHT22;9581;49.484;8.556;2023-03-01T09:55:31;7.40;99.10
18898;DHT22;9581;49.484;8.556;2023-03-01T09:58:06;7.50;98.20
18898;DHT22;9581;49.484;8.556;2023-03-01T10:00:42;7.50;97.80
18898;DHT22;9581;49.484;8.556;2023-03-01T10:03:14;7.70;97.70
18898;DHT22;9581;49.484;8.556;2023-03-01T10:05:57;7.50;97.50
18898;DHT22;9581;49.484;8.556;2023-03-01T10:08:35;8.00;98.20
18898;DHT22;9581;49.484;8.556;2023-03-01T10:11:04;8.30;97.20
18898;DHT22;9581;49.484;8.556;2023-03-01T10:13:37;8.40;96.90
18898;DHT22;9581;49.484;8.556;2023-03-01T10:16:13;8.10;96.80
18898;DHT22;9581;49.484;8.556;2023-03-01T10:18:43;8.50;97.30
18898;DHT22;9581;49.484;8.556;2023-03-01T10:21:18;8.50;96.70
18898;DHT22;9581;49.484;8.556;2023-03-01T10:23:46;8.30;95.20
18898;DHT22;9581;49.484;8.556;2023-03-01T10:29:24;8.60;96.20
18898;DHT22;9581;49.484;8.556;2023-03-01T10:31:53;9.30;96.50
18898;DHT22;9581;49.484;8.556;2023-03-01T10:34:22;9.30;95.90
18898;DHT22;9581;49.484;8.556;2023-03-01T10:36:58;9.50;94.80
18898;DHT22;9581;49.484;8.556;2023-03-01T10:39:28;9.60;94.80
18898;DHT22;9581;49.484;8.556;2023-03-01T10:41:58;9.30;95.00
18898;DHT22;9581;49.484;8.556;2023-03-01T10:44:43;9.40;94.80
18898;DHT22;9581;49.484;8.556;2023-03-01T10:47:19;9.60;93.90
18898;DHT22;9581;49.484;8.556;2023-03-01T10:50:09;9.40;94.00
18898;DHT22;9581;49.484;8.556;2023-03-01T10:52:57;9.90;94.40
18898;DHT22;9581;49.484;8.556;2023-03-01T10:55:35;9.80;92.90
18898;DHT22;9581;49.484;8.556;2023-03-01T10:58:17;10.00;93.20
18898;DHT22;9581;49.484;8.556;2023-03-01T11:00:50;10.00;92.30
18898;DHT22;9581;49.484;8.556;2023-03-01T11:03:21;10.10;92.10
18898;DHT22;9581;49.484;8.556;2023-03-01T11:06:01;10.20;92.50
18898;DHT22;9581;49.484;8.556;2023-03-01T11:08:41;10.10;91.20
18898;DHT22;9581;49.484;8.556;2023-03-01T11:11:18;9.80;92.20
18898;DHT22;9581;49.484;8.556;2023-03-01T11:13:54;10.00;92.90
18898;DHT22;9581;49.484;8.556;2023-03-01T11:16:27;10.40;93.00
18898;DHT22;9581;49.484;8.556;2023-03-01T11:19:15;10.70;93.10
18898;DHT22;9581;49.484;8.556;2023-03-01T11:21:52;10.70;92.00
18898;DHT22;9581;49.484;8.556;2023-03-01T11:24:26;10.70;91.70
18898;DHT22;9581;49.484;8.556;2023-03-01T11:26:55;9.80;91.60
18898;DHT22;9581;49.484;8.556;2023-03-01T11:29:27;10.40;91.80
18898;DHT22;9581;49.484;8.556;2023-03-01T11:31:59;10.60;91.40
18898;DHT22;9581;49.484;8.556;2023-03-01T11:34:38;10.80;91.30
18898;DHT22;9581;49.484;8.556;2023-03-01T11:37:16;10.70;90.90
18898;DHT22;9581;49.484;8.556;2023-03-01T11:39:54;10.80;91.00
18898;DHT22;9581;49.484;8.556;2023-03-01T11:42:29;11.10;90.80
18898;DHT22;9581;49.484;8.556;2023-03-01T11:45:02;11.00;90.70
18898;DHT22;9581;49.484;8.556;2023-03-01T11:47:42;11.00;90.50
18898;DHT22;9581;49.484;8.556;2023-03-01T11:50:23;11.30;90.60
18898;DHT22;9581;49.484;8.556;2023-03-01T11:53:00;11.00;91.00
18898;DHT22;9581;49.484;8.556;2023-03-01T11:55:45;10.90;90.70
18898;DHT22;9581;49.484;8.556;2023-03-01T11:58:31;11.20;90.80
18898;DHT22;9581;49.484;8.556;2023-03-01T12:01:19;11.10;90.10
18898;DHT22;9581;49.484;8.556;2023-03-01T12:07:00;11.00;90.70
18898;DHT22;9581;49.484;8.556;2023-03-01T12:09:44;11.10;90.30
18898;DHT22;9581;49.484;8.556;2023-03-01T12:12:30;11.10;90.20
18898;DHT22;9581;49.484;8.556;2023-03-01T12:15:33;11.20;90.40
18898;DHT22;9581;49.484;8.556;2023-03-01T12:18:26;11.20;90.50
18898;DHT22;9581;49.484;8.556;2023-03-01T12:21:03;11.10;89.30
18898;DHT22;9581;49.484;8.556;2023-03-01T12:24:15;11.20;89.70
18898;DHT22;9581;49.484;8.556;2023-03-01T12:26:56;11.00;88.80
18898;DHT22;9581;49.484;8.556;2023-03-01T12:29:33;10.80;89.30
18898;DHT22;9581;49.484;8.556;2023-03-01T12:32:17;10.80;89.20
18898;DHT22;9581;49.484;8.556;2023-03-01T12:35:05;11.00;90.40
18898;DHT22;9581;49.484;8.556;2023-03-01T12:37:46;11.10;90.20
18898;DHT22;9581;49.484;8.556;2023-03-01T12:40:38;11.10;89.10
18898;DHT22;9581;49.484;8.556;2023-03-01T12:43:22;11.00;89.90
18898;DHT22;9581;49.484;8.556;2023-03-01T12:46:02;11.00;89.20
18898;DHT22;9581;49.484;8.556;2023-03-01T12:48:40;11.00;89.10
18898;DHT22;9581;49.484;8.556;2023-03-01T12:51:11;11.10;90.30
18898;DHT22;9581;49.484;8.556;2023-03-01T12:53:42;10.90;89.60
18898;DHT22;9581;49.484;8.556;2023-03-01T12:56:13;11.00;89.90
18898;DHT22;9581;49.484;8.556;2023-03-01T12:58:46;11.00;90.00
18898;DHT22;9581;49.484;8.556;2023-03-01T13:01:26;11.20;89.20
18898;DHT22;9581;49.484;8.556;2023-03-01T13:07:02;11.30;89.60
18898;DHT22;9581;49.484;8.556;2023-03-01T13:09:37;11.30;88.50
18898;DHT22;9581;49.484;8.556;2023-03-01T13:15:25;11.30;87.90
18898;DHT22;9581;49.484;8.556;2023-03-01T13:17:55;11.30;87.50
18898;DHT22;9581;49.484;8.556;2023-03-01T13:20:25;11.40;88.00
18898;DHT22;9581;49.484;8.556;2023-03-01T13:23:09;11.40;87.80
18898;DHT22;9581;49.484;8.556;2023-03-01T13:26:03;11.30;88.50
18898;DHT22;9581;49.484;8.556;2023-03-01T13:31:59;11.30;87.00
18898;DHT22;9581;49.484;8.556;2023-03-01T13:34:51;11.00;87.40
18898;DHT22;9581;49.484;8.556;2023-03-01T13:37:24;11.00;87.30
18898;DHT22;9581;49.484;8.556;2023-03-01T13:39:55;10.90;87.50
18898;DHT22;9581;49.484;8.556;2023-03-01T13:42:32;10.80;87.00
18898;DHT22;9581;49.484;8.556;2023-03-01T13:45:00;10.80;87.80
18898;DHT22;9581;49.484;8.556;2023-03-01T13:47:27;10.60;87.90
18898;DHT22;9581;49.484;8.556;2023-03-01T13:49:57;10.60;88.00
18898;DHT22;9581;49.484;8.556;2023-03-01T13:52:36;10.70;87.50
18898;DHT22;9581;49.484;8.556;2023-03-01T13:55:13;10.60;88.00
18898;DHT22;9581;49.484;8.556;2023-03-01T13:57:45;10.70;89.10
18898;DHT22;9581;49.484;8.556;2023-03-01T14:00:29;10.60;87.90
18898;DHT22;9581;49.484;8.556;2023-03-01T14:03:01;10.50;86.90
18898;DHT22;9581;49.484;8.556;2023-03-01T14:05:30;10.50;88.30
18898;DHT22;9581;49.484;8.556;2023-03-01T14:07:58;10.60;88.50
18898;DHT22;9581;49.484;8.556;2023-03-01T14:10:31;10.40;88.30
18898;DHT22;9581;49.484;8.556;2023-03-01T14:13:06;10.50;88.40
18898;DHT22;9581;49.484;8.556;2023-03-01T14:15:39;10.60;88.40
18898;DHT22;9581;49.484;8.556;2023-03-01T14:18:10;10.60;89.00
18898;DHT22;9581;49.484;8.556;2023-03-01T14:20:43;10.60;88.70
18898;DHT22;9581;49.484;8.556;2023-03-01T14:23:13;10.60;87.60
18898;DHT22;9581;49.484;8.556;2023-03-01T14:25:47;10.50;88.20
18898;DHT22;9581;49.484;8.556;2023-03-01T14:28:17;10.50;87.50
18898;DHT22;9581;49.484;8.556;2023-03-01T14:30:46;10.40;87.80
18898;DHT22;9581;49.484;8.556;2023-03-01T14:33:22;10.50;88.00
18898;DHT22;9581;49.484;8.556;2023-03-01T14:35:56;10.50;87.00
18898;DHT22;9581;49.484;8.556;2023-03-01T14:38:28;10.60;87.20
18898;DHT22;9581;49.484;8.556;2023-03-01T14:40:58;10.60;88.10
18898;DHT22;9581;49.484;8.556;2023-03-01T14:43:27;10.50;87.00
18898;DHT22;9581;49.484;8.556;2023-03-01T14:45:55;10.60;87.90
18898;DHT22;9581;49.484;8.556;2023-03-01T14:48:23;10.70;87.90
18898;DHT22;9581;49.484;8.556;2023-03-01T14:50:50;10.60;86.90
18898;DHT22;9581;49.484;8.556;2023-03-01T14:53:21;10.70;88.00
18898;DHT22;9581;49.484;8.556;2023-03-01T14:55:52;10.70;87.30
18898;DHT22;9581;49.484;8.556;2023-03-01T14:58:21;10.80;86.90
18898;DHT22;9581;49.484;8.556;2023-03-01T15:00:50;10.70;86.90
18898;DHT22;9581;49.484;8.556;2023-03-01T15:03:24;10.70;86.80
18898;DHT22;9581;49.484;8.556;2023-03-01T15:05:52;10.80;86.50
18898;DHT22;9581;49.484;8.556;2023-03-01T15:08:24;12.50;86.60
18898;DHT22;9581;49.484;8.556;2023-03-01T15:10:59;13.90;84.70
18898;DHT22;9581;49.484;8.556;2023-03-01T15:13:29;13.30;81.50
18898;DHT22;9581;49.484;8.556;2023-03-01T15:16:04;12.60;82.30
18898;DHT22;9581;49.484;8.556;2023-03-01T15:18:31;12.00;83.00
18898;DHT22;9581;49.484;8.556;2023-03-01T15:21:06;11.60;83.60
18898;DHT22;9581;49.484;8.556;2023-03-01T15:23:36;11.40;83.90
18898;DHT22;9581;49.484;8.556;2023-03-01T15:26:06;11.30;84.50
18898;DHT22;9581;49.484;8.556;2023-03-01T15:28:49;11.20;84.10
18898;DHT22;9581;49.484;8.556;2023-03-01T15:31:19;10.90;84.30
18898;DHT22;9581;49.484;8.556;2023-03-01T15:33:47;11.10;84.10
18898;DHT22;9581;49.484;8.556;2023-03-01T15:36:32;11.00;84.50
18898;DHT22;9581;49.484;8.556;2023-03-01T15:39:01;11.10;85.60
18898;DHT22;9581;49.484;8.556;2023-03-01T15:41:30;11.00;85.00
18898;DHT22;9581;49.484;8.556;2023-03-01T15:43:58;10.80;84.70
18898;DHT22;9581;49.484;8.556;2023-03-01T15:46:28;10.50;84.70
18898;DHT22;9581;49.484;8.556;2023-03-01T15:48:58;10.50;86.00
18898;DHT22;9581;49.484;8.556;2023-03-01T15:51:32;10.50;85.90
18898;DHT22;9581;49.484;8.556;2023-03-01T15:54:04;10.50;85.20
18898;DHT22;9581;49.484;8.556;2023-03-01T15:56:32;10.20;85.20
18898;DHT22;9581;49.484;8.556;2023-03-01T15:59:00;10.20;85.70
18898;DHT22;9581;49.484;8.556;2023-03-01T16:01:28;10.30;85.50
18898;DHT22;9581;49.484;8.556;2023-03-01T16:03:55;10.30;86.20
18898;DHT22;9581;49.484;8.556;2023-03-01T16:06:23;10.20;86.00
18898;DHT22;9581;49.484;8.556;2023-03-01T16:08:50;10.10;87.00
18898;DHT22;9581;49.484;8.556;2023-03-01T16:11:19;10.00;86.30
18898;DHT22;9581;49.484;8.556;2023-03-01T16:13:47;9.90;87.60
18898;DHT22;9581;49.484;8.556;2023-03-01T16:16:15;9.90;88.30
18898;DHT22;9581;49.484;8.556;2023-03-01T16:18:43;9.90;89.50
18898;DHT22;9581;49.484;8.556;2023-03-01T16:21:22;9.60;89.50
18898;DHT22;9581;49.484;8.556;2023-03-01T16:23:49;9.60;89.40
18898;DHT22;9581;49.484;8.556;2023-03-01T16:26:16;9.70;89.30
18898;DHT22;9581;49.484;8.556;2023-03-01T16:28:46;9.30;89.60
18898;DHT22;9581;49.484;8.556;2023-03-01T16:31:17;9.30;89.50
18898;DHT22;9581;49.484;8.556;2023-03-01T16:33:44;9.40;90.10
18898;DHT22;9581;49.484;8.556;2023-03-01T16:36:15;9.40;89.70